Airfield :
LOGIN :

Register | Disclaimer

   EN    FR    IT 

 










Legend :    VFR   Marginal VFR   IFR   Intensive IFR   Very Intensive IFR
Visi :
Ceiling :
>= 8 km
>= 3000ft
5 to 8 km
1000 to 3000 ft
1500m to 5 km
500 to 1000 ft
800 to 1500m
200 to 500 ft
< 800m
< 200 ft
Symbols :   Thunderstorms  Fog  Heavy snow  Heavy precipitations  Wind > 20 kt
SIGMETs :     Misc.  Thunderstorms  Icing  Turbulence  Mountain Waves  Volcanic Ashes







- Airport Elevation : 741 ft
- IATA code : PED


LKPD - Pardubice AB

CURRENT METAR :
  • 212200Z 26006KT CAVOK 12/10 Q1019 RMK BLU

EXPIRED METARs :
  • 212100Z 29005KT 9999 SCT040 BKN070 OVC100 13/09 Q1019 RMK BLU
  • 212000Z 27006KT CAVOK 13/09 Q1019 NOSIG RMK BLU BLU

TAF TAF LKPD
Valid from the 21 at 18:00 until the 22 at 18:00 UTC


211700Z 2118/2218 30006KT CAVOK
TEMPO 2202/2208 4000 MIFG BR BKN030
BECMG 2208/2210 BKN027
BECMG 2212/2214 CAVOK
No reported NOTAMs for that airfield.
1 SIGMET reported for the Praha FIR (LKAA) :
 
Severe icing
LKAA SIGMET 2 VALID 212100/220100 LKPW
LKAA PRAHA FIR SEV ICE FCST WI N5047 E01701 - N4946 E01921 - N4820 E01711 - N4833 E01551 - N5047 E01638 - N5047 E01701 FL070/130 STNR NC=



MET'MAP, your aeronautical weather chart ! - Copyright ORBIFLY December 2007 - Disclaimer

ORBIFLY MET'MAP TEAM :

Programming & Development : Alexandra Zaïnal
Concept & Development : Baudouin d'Aumeries
Co-Development & Prog : Marc-Olivier Méhu
Technical & hardware support : Manuel Goepfert

Contact : metmap@orbifly.com




SOURCES & CREDITS :

   NOAA